Time;durP1;ratioP1;P1;durP2;ratioP2;P2;SDS_P1;SDS_P2;PMS_P1;PMS_P2;Temp;Humidity;BMP_temperature;BMP_pressure;BME280_temperature;BME280_humidity;BME280_pressure;Samples;Min_cycle;Max_cycle;Signal;HPM_P1;HPM_P2
2022/11/14 00:01:40;;;;;;;2.27;1.93;;;11.50;78.90;;;;;;5025141;28;20547;-69
2022/11/14 00:04:27;;;;;;;3.90;1.90;;;11.40;78.80;;;;;;5027684;28;20420;-69
2022/11/14 00:07:16;;;;;;;2.00;1.90;;;11.50;78.90;;;;;;5024040;28;21003;-70
2022/11/14 00:10:03;;;;;;;2.77;2.07;;;11.40;78.70;;;;;;5026882;28;20463;-69
2022/11/14 00:12:50;;;;;;;2.63;2.20;;;11.50;78.70;;;;;;5020116;28;20460;-69
2022/11/14 00:15:40;;;;;;;3.33;2.30;;;11.50;78.90;;;;;;5026103;28;20878;-69
2022/11/14 00:18:28;;;;;;;2.40;2.20;;;11.40;78.70;;;;;;5026785;28;20924;-70
2022/11/14 00:21:17;;;;;;;2.57;2.37;;;11.40;78.60;;;;;;5027886;28;20443;-69
2022/11/14 00:24:05;;;;;;;1.60;1.50;;;11.40;78.60;;;;;;5026664;28;20436;-69
2022/11/14 00:26:52;;;;;;;2.50;1.80;;;11.40;78.90;;;;;;5020845;28;20459;-69
2022/11/14 00:29:38;;;;;;;2.17;1.70;;;11.40;78.90;;;;;;5024064;28;20813;-70
2022/11/14 00:32:25;;;;;;;2.33;2.07;;;11.40;78.80;;;;;;5026779;28;21017;-69
2022/11/14 00:35:13;;;;;;;2.00;1.80;;;11.40;78.70;;;;;;5028460;28;20499;-69
2022/11/14 00:38:00;;;;;;;2.10;1.90;;;11.40;78.70;;;;;;5023318;28;20440;-69
2022/11/14 00:40:47;;;;;;;2.50;2.20;;;11.40;78.90;;;;;;5022194;28;20468;-70
2022/11/14 00:43:33;;;;;;;2.20;2.00;;;11.40;78.40;;;;;;5027560;28;20428;-69
2022/11/14 00:46:21;;;;;;;2.30;1.63;;;11.40;78.50;;;;;;5025705;28;20558;-70
2022/11/14 00:49:08;;;;;;;2.57;2.10;;;11.40;78.40;;;;;;5027013;28;20448;-70
2022/11/14 00:51:56;;;;;;;2.47;2.27;;;11.40;78.60;;;;;;5020416;28;20479;-69
2022/11/14 00:54:43;;;;;;;2.20;2.00;;;11.40;78.40;;;;;;5026305;28;20468;-70
2022/11/14 00:57:30;;;;;;;3.10;1.60;;;11.40;78.60;;;;;;5026797;28;20475;-69
2022/11/14 01:00:17;;;;;;;2.13;1.80;;;11.40;78.60;;;;;;5025057;28;20452;-70
2022/11/14 01:03:04;;;;;;;2.17;1.70;;;11.40;78.60;;;;;;5022190;28;20455;-69
2022/11/14 01:05:51;;;;;;;2.43;2.00;;;11.40;78.60;;;;;;5023654;28;20436;-69
2022/11/14 01:08:40;;;;;;;3.07;1.90;;;11.40;78.40;;;;;;5018432;28;20811;-69
2022/11/14 01:11:27;;;;;;;1.93;1.60;;;11.40;78.70;;;;;;5026549;28;20472;-70
2022/11/14 01:14:14;;;;;;;1.80;1.70;;;11.30;78.40;;;;;;5024109;28;20653;-69
2022/11/14 01:17:01;;;;;;;2.57;2.20;;;11.40;78.50;;;;;;5024385;28;20460;-69
2022/11/14 01:19:48;;;;;;;2.40;2.00;;;11.40;78.40;;;;;;5022084;28;20463;-70
2022/11/14 01:22:38;;;;;;;1.80;1.63;;;11.30;78.40;;;;;;5026286;28;21009;-69
2022/11/14 01:25:26;;;;;;;2.90;2.50;;;11.30;78.40;;;;;;5024175;28;20452;-70
2022/11/14 01:28:15;;;;;;;1.77;1.63;;;11.30;78.50;;;;;;5030285;28;20533;-70
2022/11/14 01:31:10;;;;;;;1.80;1.70;;;11.30;78.50;;;;;;5029305;28;20503;-69
2022/11/14 01:33:57;;;;;;;1.90;1.80;;;11.30;78.50;;;;;;5028174;28;20467;-69
2022/11/14 01:36:45;;;;;;;2.83;2.13;;;11.30;78.60;;;;;;5024953;28;20475;-70
2022/11/14 01:39:34;;;;;;;2.70;1.90;;;11.30;78.40;;;;;;5028717;28;20850;-70
2022/11/14 01:42:23;;;;;;;2.53;1.87;;;11.30;78.50;;;;;;5027588;28;20486;-69
2022/11/14 01:45:58;;;;;;;1.97;1.77;;;11.30;78.50;;;;;;5028471;28;20455;-69
2022/11/14 01:48:47;;;;;;;3.50;1.73;;;11.30;78.40;;;;;;4993274;28;20458;-69
2022/11/14 01:51:38;;;;;;;3.00;2.00;;;11.30;78.40;;;;;;5029131;28;20464;-69
2022/11/14 01:54:30;;;;;;;2.30;2.10;;;11.30;78.30;;;;;;5027762;28;21067;-70
2022/11/14 01:57:22;;;;;;;2.00;1.73;;;11.30;78.50;;;;;;5029678;28;20472;-69
2022/11/14 02:00:12;;;;;;;2.20;2.00;;;11.30;78.40;;;;;;5028721;28;20467;-69
2022/11/14 02:03:00;;;;;;;1.77;1.67;;;11.30;78.10;;;;;;5025860;28;20444;-69
2022/11/14 02:05:48;;;;;;;2.07;1.70;;;11.30;78.10;;;;;;5023689;28;20531;-69
2022/11/14 02:08:36;;;;;;;2.20;2.00;;;11.30;78.30;;;;;;5029374;28;20782;-69
2022/11/14 02:11:23;;;;;;;2.80;1.90;;;11.30;78.30;;;;;;5028192;28;20498;-69
2022/11/14 02:14:11;;;;;;;1.77;1.67;;;11.30;78.30;;;;;;5029373;28;20851;-69
2022/11/14 02:16:59;;;;;;;2.10;1.90;;;11.30;78.30;;;;;;5024799;28;20471;-69
2022/11/14 02:20:27;;;;;;;2.07;1.87;;;11.20;78.10;;;;;;5029223;28;20448;-69
2022/11/14 02:23:16;;;;;;;1.90;1.70;;;11.20;78.20;;;;;;5025595;28;20538;-69
2022/11/14 02:26:03;;;;;;;1.97;1.77;;;11.30;78.40;;;;;;5029665;28;20445;-69
2022/11/14 02:28:50;;;;;;;1.93;1.73;;;11.30;78.30;;;;;;5022316;28;20453;-69
2022/11/14 02:31:37;;;;;;;2.43;1.70;;;11.20;78.10;;;;;;5026822;28;20464;-70
2022/11/14 02:34:24;;;;;;;2.50;2.30;;;11.20;78.10;;;;;;5028565;28;20963;-69
2022/11/14 02:37:12;;;;;;;2.30;2.10;;;11.20;78.10;;;;;;5027655;28;20475;-69
2022/11/14 02:39:59;;;;;;;2.17;1.97;;;11.20;77.80;;;;;;5023377;28;21025;-69
2022/11/14 02:42:45;;;;;;;2.50;1.90;;;11.20;77.80;;;;;;5021338;28;20471;-69
2022/11/14 02:45:32;;;;;;;2.60;2.23;;;11.20;77.80;;;;;;5012029;28;20444;-69
2022/11/14 02:48:19;;;;;;;2.50;2.30;;;11.20;77.90;;;;;;5019931;28;20524;-69
2022/11/14 02:51:06;;;;;;;2.57;2.37;;;11.20;77.40;;;;;;5020559;28;20484;-69
2022/11/14 02:53:55;;;;;;;2.80;2.40;;;11.20;76.90;;;;;;5123993;22;20677;-73
2022/11/14 02:56:41;;;;;;;3.00;2.53;;;11.20;77.00;;;;;;5022079;28;20456;-74
2022/11/14 02:59:28;;;;;;;3.63;2.67;;;11.10;76.90;;;;;;5028936;28;20616;-75
2022/11/14 03:02:15;;;;;;;2.33;2.13;;;11.10;76.70;;;;;;5027842;28;21052;-74
2022/11/14 03:05:02;;;;;;;2.70;2.50;;;11.10;75.30;;;;;;5022125;28;20527;-73
2022/11/14 03:07:52;;;;;;;2.33;2.13;;;11.10;74.90;;;;;;4994496;28;21009;-73
2022/11/14 03:10:40;;;;;;;2.80;2.43;;;11.00;75.10;;;;;;5003713;28;20469;-74
2022/11/14 03:13:29;;;;;;;2.83;2.60;;;11.00;74.80;;;;;;5010981;28;20924;-73
2022/11/14 03:16:16;;;;;;;3.07;2.77;;;11.00;74.70;;;;;;4998824;28;20518;-74
2022/11/14 03:19:03;;;;;;;2.60;2.40;;;10.90;74.60;;;;;;5001904;28;20446;-75
2022/11/14 03:21:50;;;;;;;2.80;2.53;;;10.90;74.80;;;;;;5006673;28;20503;-74
2022/11/14 03:24:37;;;;;;;3.20;2.90;;;10.90;75.10;;;;;;5022402;28;20441;-73
2022/11/14 03:27:26;;;;;;;4.00;2.47;;;10.90;75.30;;;;;;5011423;28;20468;-74
2022/11/14 03:30:13;;;;;;;2.47;1.93;;;10.90;75.70;;;;;;5002489;28;20462;-75
2022/11/14 03:33:00;;;;;;;2.50;2.17;;;10.90;76.30;;;;;;5006801;28;20840;-75
2022/11/14 03:35:49;;;;;;;2.20;2.00;;;10.90;76.30;;;;;;4998813;28;20462;-73
2022/11/14 03:38:36;;;;;;;2.30;2.00;;;10.90;76.30;;;;;;5010294;28;20440;-73
2022/11/14 03:41:22;;;;;;;5.10;2.73;;;10.90;76.20;;;;;;5000140;28;20481;-74
2022/11/14 03:44:11;;;;;;;2.90;1.93;;;10.90;75.20;;;;;;5002352;28;21016;-74
2022/11/14 03:46:57;;;;;;;2.30;2.10;;;10.90;76.10;;;;;;5003683;28;21008;-72
2022/11/14 03:49:44;;;;;;;1.67;1.57;;;10.90;75.40;;;;;;5000034;28;20463;-74
2022/11/14 03:52:31;;;;;;;2.80;1.73;;;10.90;75.10;;;;;;5006998;28;20828;-73
2022/11/14 03:55:17;;;;;;;3.80;2.27;;;10.90;75.30;;;;;;5007877;28;20472;-74
2022/11/14 03:58:05;;;;;;;2.10;1.90;;;10.90;75.80;;;;;;5022389;28;20445;-75
2022/11/14 04:00:54;;;;;;;2.90;2.50;;;10.90;75.70;;;;;;5017483;28;20472;-74
2022/11/14 04:03:42;;;;;;;2.33;2.03;;;10.90;76.00;;;;;;5017309;28;20433;-73
2022/11/14 04:06:29;;;;;;;2.40;2.20;;;10.90;75.50;;;;;;5018011;28;20978;-74
2022/11/14 04:09:16;;;;;;;3.60;2.27;;;10.90;74.70;;;;;;5011805;28;20491;-73
2022/11/14 04:12:03;;;;;;;3.20;2.23;;;10.90;75.40;;;;;;5008181;28;20551;-73
2022/11/14 04:14:50;;;;;;;2.47;2.27;;;10.90;75.20;;;;;;5013958;28;20797;-74
2022/11/14 04:17:38;;;;;;;2.20;2.00;;;10.90;76.20;;;;;;5015467;28;20572;-74
2022/11/14 04:20:26;;;;;;;2.30;2.00;;;10.90;76.40;;;;;;5009380;28;20506;-75
2022/11/14 04:23:13;;;;;;;2.20;1.97;;;10.90;76.20;;;;;;5006893;28;20457;-74
2022/11/14 04:26:00;;;;;;;2.93;2.40;;;10.90;76.10;;;;;;5005374;28;20435;-74
2022/11/14 04:28:47;;;;;;;2.40;2.10;;;10.90;75.20;;;;;;5000929;28;20448;-74
2022/11/14 04:31:33;;;;;;;2.50;2.30;;;10.90;75.80;;;;;;5001151;28;20479;-73
2022/11/14 04:34:21;;;;;;;2.10;1.97;;;10.90;75.20;;;;;;5007145;28;20464;-73
2022/11/14 04:37:08;;;;;;;3.93;2.70;;;10.80;74.50;;;;;;5006220;28;20481;-73
2022/11/14 04:39:59;;;;;;;2.27;2.00;;;10.80;75.20;;;;;;5001975;28;20471;-74
2022/11/14 04:42:46;;;;;;;2.37;2.07;;;10.80;75.90;;;;;;5006774;28;20476;-74
2022/11/14 04:45:33;;;;;;;2.77;1.77;;;10.80;75.00;;;;;;5020958;28;20452;-74
2022/11/14 04:48:20;;;;;;;2.90;2.60;;;10.80;75.50;;;;;;5020512;28;20773;-73
2022/11/14 04:51:08;;;;;;;2.17;1.93;;;10.80;75.80;;;;;;5016846;28;20467;-73
2022/11/14 04:53:55;;;;;;;2.70;2.30;;;10.80;76.20;;;;;;5015399;28;20602;-74
2022/11/14 04:56:42;;;;;;;2.83;1.93;;;10.80;75.80;;;;;;5007802;28;20457;-74
2022/11/14 04:59:29;;;;;;;2.53;2.00;;;10.80;77.70;;;;;;5014768;28;20457;-74
2022/11/14 05:02:16;;;;;;;2.40;2.20;;;10.80;76.20;;;;;;5015560;28;20472;-74
2022/11/14 05:05:03;;;;;;;2.83;2.33;;;10.80;76.30;;;;;;5031021;28;20776;-74
2022/11/14 05:07:51;;;;;;;2.47;2.00;;;10.80;75.10;;;;;;5025605;28;20479;-73
2022/11/14 05:10:38;;;;;;;2.60;2.40;;;10.80;75.30;;;;;;5016458;28;20474;-74
2022/11/14 05:13:25;;;;;;;4.03;2.77;;;10.80;74.80;;;;;;5019451;28;20464;-74
2022/11/14 05:16:12;;;;;;;2.13;1.93;;;10.80;75.20;;;;;;5021141;28;20555;-75
2022/11/14 05:18:59;;;;;;;3.17;2.37;;;10.70;74.40;;;;;;5014112;28;21004;-74
2022/11/14 05:21:46;;;;;;;2.00;1.70;;;10.70;75.10;;;;;;5029744;28;20454;-74
2022/11/14 05:24:35;;;;;;;1.73;1.63;;;10.70;75.70;;;;;;5028588;28;20451;-74
2022/11/14 05:27:22;;;;;;;2.47;2.27;;;10.70;74.80;;;;;;5022534;28;20465;-74
2022/11/14 05:30:10;;;;;;;3.43;2.70;;;10.70;75.20;;;;;;5022472;28;20456;-75
2022/11/14 05:32:57;;;;;;;2.80;2.60;;;10.70;75.60;;;;;;5012056;28;20460;-74
2022/11/14 05:35:44;;;;;;;2.40;1.93;;;10.70;75.80;;;;;;5011754;28;20511;-74
2022/11/14 05:38:31;;;;;;;3.20;2.60;;;10.70;75.50;;;;;;5012895;28;20535;-73
2022/11/14 05:41:20;;;;;;;2.90;2.40;;;10.70;76.10;;;;;;5020935;28;20476;-73
2022/11/14 05:44:07;;;;;;;4.00;2.33;;;10.70;76.00;;;;;;5028945;28;20784;-74
2022/11/14 05:46:54;;;;;;;3.20;2.47;;;10.70;75.80;;;;;;5021266;28;20855;-74
2022/11/14 05:49:41;;;;;;;3.13;2.07;;;10.70;74.80;;;;;;5018966;28;20546;-73
2022/11/14 05:52:28;;;;;;;2.97;2.67;;;10.70;74.20;;;;;;5017520;28;20495;-74
2022/11/14 05:55:15;;;;;;;2.40;2.20;;;10.70;75.20;;;;;;5025653;28;20799;-75
2022/11/14 05:58:11;;;;;;;3.40;2.53;;;10.60;74.60;;;;;;5030030;28;20812;-75
2022/11/14 06:01:03;;;;;;;5.57;2.97;;;10.60;74.30;;;;;;5027385;28;20839;-74
2022/11/14 06:03:50;;;;;;;3.93;2.30;;;10.60;74.50;;;;;;5025472;28;21019;-72
2022/11/14 06:06:37;;;;;;;3.80;2.90;;;10.60;74.30;;;;;;5012969;28;20467;-73
2022/11/14 06:09:24;;;;;;;3.83;2.00;;;10.50;74.50;;;;;;5014730;28;20452;-72
2022/11/14 06:12:11;;;;;;;2.40;2.20;;;10.50;74.80;;;;;;5024740;28;20463;-73
2022/11/14 06:14:59;;;;;;;3.53;2.20;;;10.50;75.10;;;;;;5017589;28;20812;-74
2022/11/14 06:17:46;;;;;;;2.33;2.13;;;10.50;74.50;;;;;;5016255;28;20511;-73
2022/11/14 06:20:33;;;;;;;2.70;2.30;;;10.50;74.80;;;;;;5025399;28;21143;-72
2022/11/14 06:23:20;;;;;;;2.37;2.00;;;10.50;74.90;;;;;;5018361;28;20433;-74
2022/11/14 06:26:19;;;;;;;3.30;2.20;;;10.50;74.70;;;;;;5018371;28;20436;-74
2022/11/14 06:29:06;;;;;;;3.13;2.23;;;10.50;75.50;;;;;;5013977;28;20437;-73
2022/11/14 06:31:55;;;;;;;3.47;2.73;;;10.50;74.80;;;;;;5016796;28;20487;-74
2022/11/14 06:34:41;;;;;;;2.57;2.37;;;10.40;76.00;;;;;;5011129;28;20429;-73
2022/11/14 06:37:28;;;;;;;4.83;2.70;;;10.40;75.20;;;;;;5019335;28;20505;-72
2022/11/14 06:40:19;;;;;;;2.73;2.37;;;10.50;74.70;;;;;;5019316;28;20456;-72
2022/11/14 06:43:06;;;;;;;6.27;2.67;;;10.40;74.70;;;;;;5016181;28;20453;-72
2022/11/14 06:45:54;;;;;;;4.00;2.20;;;10.50;75.20;;;;;;5017226;28;20449;-73
2022/11/14 06:48:44;;;;;;;3.83;2.20;;;10.50;75.50;;;;;;5009685;28;20433;-74
2022/11/14 06:51:30;;;;;;;3.00;2.70;;;10.50;75.70;;;;;;5010748;28;20543;-73
2022/11/14 06:54:17;;;;;;;3.17;2.87;;;10.50;74.90;;;;;;5011452;28;20587;-75
2022/11/14 06:57:04;;;;;;;4.43;2.90;;;10.40;74.30;;;;;;5003216;28;20520;-72
2022/11/14 06:59:51;;;;;;;3.53;2.63;;;10.40;75.20;;;;;;5018511;28;20449;-75
2022/11/14 07:02:38;;;;;;;3.87;2.97;;;10.40;75.20;;;;;;5017098;28;20472;-73
2022/11/14 07:05:27;;;;;;;2.33;1.87;;;10.40;75.40;;;;;;5018832;28;20447;-74
2022/11/14 07:08:14;;;;;;;2.63;2.40;;;10.50;75.80;;;;;;5021170;28;20483;-74
2022/11/14 07:11:09;;;;;;;2.87;2.47;;;10.40;75.20;;;;;;5012698;28;20467;-73
2022/11/14 07:13:58;;;;;;;4.07;3.10;;;10.40;75.90;;;;;;5009558;28;20574;-74
2022/11/14 07:16:45;;;;;;;1.93;1.70;;;10.40;75.30;;;;;;5010838;28;20465;-74
2022/11/14 07:19:32;;;;;;;3.70;2.50;;;10.40;76.30;;;;;;5015268;28;20468;-74
2022/11/14 07:22:21;;;;;;;2.07;1.87;;;10.50;75.60;;;;;;5026198;28;20794;-73
2022/11/14 07:25:09;;;;;;;3.20;2.67;;;10.40;75.90;;;;;;5014968;28;20449;-74
2022/11/14 07:27:57;;;;;;;4.10;3.03;;;10.40;75.60;;;;;;5011636;28;20489;-73
2022/11/14 07:30:44;;;;;;;2.80;1.63;;;10.40;75.80;;;;;;5012044;28;20476;-73
2022/11/14 07:33:31;;;;;;;2.63;2.33;;;10.50;76.10;;;;;;5020479;28;20575;-73
2022/11/14 07:36:19;;;;;;;5.43;2.80;;;10.40;75.70;;;;;;5011066;28;20558;-73
2022/11/14 07:39:08;;;;;;;2.77;2.57;;;10.40;75.80;;;;;;5014645;28;20440;-73
2022/11/14 07:41:55;;;;;;;3.90;1.90;;;10.40;76.10;;;;;;5008614;28;20504;-74
2022/11/14 07:44:42;;;;;;;3.87;2.27;;;10.40;76.20;;;;;;5014870;28;20751;-73
2022/11/14 07:47:29;;;;;;;3.77;2.27;;;10.40;75.90;;;;;;5008616;28;20976;-73
2022/11/14 07:50:16;;;;;;;2.40;1.80;;;10.40;76.90;;;;;;5016773;28;20955;-74
2022/11/14 07:53:06;;;;;;;2.53;2.27;;;10.40;76.30;;;;;;5015905;28;20476;-73
2022/11/14 07:55:55;;;;;;;1.97;1.77;;;10.40;76.30;;;;;;5022563;28;20547;-73
2022/11/14 07:58:42;;;;;;;3.73;2.40;;;10.40;76.30;;;;;;5009845;28;20460;-74
2022/11/14 08:01:29;;;;;;;2.20;2.00;;;10.40;76.20;;;;;;5021027;28;20550;-74
2022/11/14 08:04:16;;;;;;;3.00;2.47;;;10.40;76.40;;;;;;5019761;28;20459;-73
2022/11/14 08:07:03;;;;;;;3.50;2.17;;;10.40;76.40;;;;;;5026990;28;20448;-73
2022/11/14 08:09:53;;;;;;;4.07;2.80;;;10.40;76.30;;;;;;5026513;28;20468;-72
2022/11/14 08:12:42;;;;;;;2.57;2.30;;;10.40;76.20;;;;;;5019573;28;20503;-72
2022/11/14 08:15:29;;;;;;;3.03;2.30;;;10.40;76.30;;;;;;5020898;28;20522;-74
2022/11/14 08:18:16;;;;;;;2.93;2.20;;;10.40;76.40;;;;;;5022033;28;21039;-73
2022/11/14 08:21:04;;;;;;;3.27;2.60;;;10.40;76.40;;;;;;5026158;28;20497;-72
2022/11/14 08:23:51;;;;;;;4.33;3.20;;;10.40;76.30;;;;;;5025449;28;20428;-75
2022/11/14 08:26:38;;;;;;;5.50;3.07;;;10.40;76.30;;;;;;5022750;28;20510;-73
2022/11/14 08:29:27;;;;;;;3.70;2.47;;;10.30;76.30;;;;;;5021988;28;20460;-70
2022/11/14 08:32:14;;;;;;;4.43;3.03;;;10.40;76.60;;;;;;5001009;28;20878;-68
2022/11/14 08:35:01;;;;;;;2.73;2.30;;;10.30;76.40;;;;;;5022286;28;20425;-69
2022/11/14 08:37:48;;;;;;;3.90;3.40;;;10.40;76.60;;;;;;5026383;28;20501;-69
2022/11/14 08:40:36;;;;;;;3.53;2.73;;;10.30;76.40;;;;;;5027132;28;20583;-69
2022/11/14 08:43:23;;;;;;;2.63;2.20;;;10.30;76.50;;;;;;5027925;28;20452;-69
2022/11/14 08:46:12;;;;;;;4.30;3.00;;;10.30;76.40;;;;;;5026726;28;20446;-70
2022/11/14 08:48:58;;;;;;;4.30;3.47;;;10.30;76.50;;;;;;5014334;28;20425;-69
2022/11/14 08:51:45;;;;;;;4.17;2.80;;;10.30;76.50;;;;;;5020932;28;20464;-69
2022/11/14 08:54:32;;;;;;;3.70;2.80;;;10.30;76.70;;;;;;5039846;23;20482;-72
2022/11/14 08:57:19;;;;;;;2.70;2.50;;;10.30;76.60;;;;;;5034157;28;20471;-73
2022/11/14 09:00:07;;;;;;;3.77;2.73;;;10.30;76.80;;;;;;5032687;28;20917;-73
2022/11/14 09:02:55;;;;;;;2.50;2.13;;;10.30;76.70;;;;;;5022384;28;20486;-73
2022/11/14 09:05:43;;;;;;;3.87;3.00;;;10.30;76.70;;;;;;5016586;28;20426;-73
2022/11/14 09:08:30;;;;;;;3.37;2.53;;;10.30;76.80;;;;;;5011582;28;20582;-72
2022/11/14 09:11:18;;;;;;;5.10;4.33;;;10.30;76.70;;;;;;5036022;28;20475;-73
2022/11/14 09:14:05;;;;;;;8.10;3.67;;;10.30;76.70;;;;;;5040516;28;20530;-73
2022/11/14 09:16:51;;;;;;;5.97;4.67;;;10.30;76.70;;;;;;5032939;28;20483;-72
2022/11/14 09:19:44;;;;;;;3.77;3.07;;;10.30;76.90;;;;;;5031158;28;21050;-73
2022/11/14 09:22:31;;;;;;;7.60;4.53;;;10.30;76.80;;;;;;5042500;28;20491;-72
2022/11/14 09:25:19;;;;;;;6.50;4.00;;;10.30;77.10;;;;;;5014436;28;20885;-73
2022/11/14 09:28:07;;;;;;;8.07;5.57;;;10.30;77.30;;;;;;5038710;28;20938;-72
2022/11/14 09:31:00;;;;;;;7.73;4.70;;;10.30;77.50;;;;;;5027510;28;20551;-73
2022/11/14 09:33:47;;;;;;;6.07;4.57;;;10.20;77.70;;;;;;5035748;28;20432;-73
2022/11/14 09:36:35;;;;;;;5.77;4.07;;;10.20;77.60;;;;;;5027238;28;20498;-72
2022/11/14 09:39:22;;;;;;;5.27;4.80;;;10.20;77.60;;;;;;5036116;28;20523;-71
2022/11/14 09:42:25;;;;;;;5.80;4.27;;;10.20;77.60;;;;;;5032563;28;20482;-72
2022/11/14 09:45:15;;;;;;;7.80;6.17;;;10.20;77.60;;;;;;5023647;28;20434;-73
2022/11/14 09:48:06;;;;;;;6.60;5.03;;;10.20;77.90;;;;;;5025205;28;20535;-73
2022/11/14 09:51:05;;;;;;;7.00;4.83;;;10.20;78.10;;;;;;5022176;28;20447;-73
2022/11/14 09:54:01;;;;;;;5.40;4.60;;;10.20;78.10;;;;;;5019122;28;20970;-73
2022/11/14 09:57:00;;;;;;;7.00;4.70;;;10.20;78.00;;;;;;5028315;28;20525;-73
2022/11/14 10:00:17;;;;;;;6.03;5.10;;;10.10;78.00;;;;;;5015169;28;20978;-73
2022/11/14 10:07:16;;;;;;;5.93;4.43;;;10.10;78.00;;;;;;5012272;28;20463;-73
2022/11/14 10:10:45;;;;;;;5.87;4.73;;;10.10;78.10;;;;;;5041464;28;20464;-73
2022/11/14 10:14:20;;;;;;;6.53;5.10;;;10.10;78.10;;;;;;5020669;28;20507;-73
2022/11/14 10:17:36;;;;;;;7.90;5.43;;;10.10;78.10;;;;;;5017992;28;20456;-73
2022/11/14 10:20:59;;;;;;;4.30;3.60;;;10.20;78.20;;;;;;5030608;28;20481;-73
2022/11/14 10:27:37;;;;;;;4.73;3.40;;;10.20;78.20;;;;;;5025888;28;20476;-69
2022/11/14 10:30:46;;;;;;;5.70;4.30;;;10.20;78.10;;;;;;5023019;28;20508;-70
2022/11/14 10:33:58;;;;;;;4.20;3.40;;;10.20;78.20;;;;;;5034287;28;20454;-70
2022/11/14 10:37:05;;;;;;;4.53;3.47;;;10.20;78.10;;;;;;5020205;28;20542;-70
2022/11/14 10:39:54;;;;;;;4.00;3.57;;;10.20;78.20;;;;;;5022334;28;20488;-73
2022/11/14 10:42:46;;;;;;;4.90;3.90;;;10.20;78.10;;;;;;5032523;28;21072;-73
2022/11/14 10:45:36;;;;;;;4.30;3.90;;;10.20;78.10;;;;;;5026143;28;20531;-73
2022/11/14 10:48:30;;;;;;;4.20;3.40;;;10.20;78.10;;;;;;5024695;28;20456;-73
2022/11/14 10:51:24;;;;;;;4.93;3.47;;;10.20;78.10;;;;;;5045007;28;20459;-73
2022/11/14 10:54:16;;;;;;;4.27;3.23;;;10.20;78.20;;;;;;5024904;28;20869;-73
2022/11/14 10:57:03;;;;;;;5.43;3.63;;;10.20;78.30;;;;;;5023879;28;20494;-73
2022/11/14 10:59:52;;;;;;;3.43;2.70;;;10.20;78.30;;;;;;5020879;28;20495;-73
2022/11/14 11:02:51;;;;;;;3.33;3.00;;;10.20;78.40;;;;;;5004483;28;20507;-73
2022/11/14 11:05:47;;;;;;;4.80;3.80;;;10.20;78.90;;;;;;5001570;28;20450;-73
2022/11/14 11:11:58;;;;;;;4.90;3.83;;;10.10;78.90;;;;;;5002126;28;20470;-73
2022/11/14 11:15:18;;;;;;;4.37;3.60;;;10.10;79.00;;;;;;5011230;28;20665;-73
2022/11/14 11:18:22;;;;;;;4.43;2.73;;;10.20;80.40;;;;;;5017177;28;20456;-73
2022/11/14 11:21:11;;;;;;;3.47;2.83;;;10.20;79.40;;;;;;5023136;28;20475;-73
2022/11/14 11:23:58;;;;;;;4.97;4.00;;;10.20;79.20;;;;;;5024043;28;20475;-73
2022/11/14 11:26:45;;;;;;;4.27;3.40;;;10.10;79.40;;;;;;5011992;28;20556;-73
2022/11/14 11:29:31;;;;;;;3.67;2.90;;;10.20;79.50;;;;;;5004670;28;20463;-73
2022/11/14 11:32:26;;;;;;;5.40;3.70;;;10.10;79.80;;;;;;4998764;28;20497;-73
2022/11/14 11:35:14;;;;;;;5.17;4.00;;;10.10;80.00;;;;;;4990884;28;20425;-73
2022/11/14 11:38:04;;;;;;;3.70;2.90;;;10.20;80.30;;;;;;5009146;28;20995;-73
2022/11/14 11:40:59;;;;;;;5.20;3.50;;;10.10;80.00;;;;;;4998818;28;20508;-73
2022/11/14 11:43:50;;;;;;;3.30;2.97;;;10.10;80.00;;;;;;5004008;28;20975;-73
2022/11/14 11:46:49;;;;;;;3.77;3.40;;;10.10;80.20;;;;;;5002477;28;20469;-70
2022/11/14 11:49:45;;;;;;;3.60;3.30;;;10.20;80.40;;;;;;4997864;28;20983;-70
2022/11/14 11:52:48;;;;;;;4.33;2.80;;;10.10;80.40;;;;;;4989166;28;20527;-69
2022/11/14 11:55:42;;;;;;;3.33;2.90;;;10.10;80.60;;;;;;5003996;28;20453;-70
2022/11/14 11:58:36;;;;;;;3.93;2.80;;;10.10;80.60;;;;;;4990088;28;20452;-73
2022/11/14 12:01:24;;;;;;;4.03;3.30;;;10.10;80.40;;;;;;4999294;28;20458;-69
2022/11/14 12:04:11;;;;;;;4.93;3.83;;;10.10;80.50;;;;;;5002137;28;20445;-70
2022/11/14 12:07:10;;;;;;;5.20;3.23;;;10.10;80.90;;;;;;4988721;28;20458;-70
2022/11/14 12:09:59;;;;;;;6.77;4.90;;;10.10;80.70;;;;;;4993183;28;20597;-70
2022/11/14 12:13:44;;;;;;;4.63;3.40;;;10.10;80.70;;;;;;5001561;28;20533;-69
2022/11/14 12:16:49;;;;;;;5.30;3.80;;;10.10;80.50;;;;;;5006600;28;21013;-70
2022/11/14 12:20:02;;;;;;;4.10;3.30;;;10.10;80.90;;;;;;5008802;28;20503;-73
2022/11/14 12:23:14;;;;;;;4.63;3.47;;;10.10;80.50;;;;;;5010434;28;20464;-70
2022/11/14 12:26:24;;;;;;;4.13;3.47;;;10.10;80.50;;;;;;4997613;28;20444;-70
2022/11/14 12:29:27;;;;;;;4.57;4.17;;;10.10;81.10;;;;;;5002330;28;20465;-70
2022/11/14 12:32:19;;;;;;;6.03;3.97;;;10.10;81.00;;;;;;5012599;28;20482;-70
2022/11/14 12:35:16;;;;;;;5.60;3.60;;;10.10;81.40;;;;;;5017610;28;20444;-69
2022/11/14 12:38:18;;;;;;;5.13;3.70;;;10.10;81.30;;;;;;5007639;28;20445;-70
2022/11/14 12:41:09;;;;;;;5.80;3.97;;;10.10;81.10;;;;;;5002579;28;20460;-69
2022/11/14 12:44:17;;;;;;;6.23;5.10;;;10.10;81.30;;;;;;5009409;28;20450;-73
2022/11/14 12:47:21;;;;;;;5.47;4.10;;;10.10;81.20;;;;;;5007904;28;20518;-73
2022/11/14 12:50:28;;;;;;;6.80;4.80;;;10.10;81.40;;;;;;5004921;28;20488;-72
2022/11/14 12:56:47;;;;;;;4.90;3.70;;;10.10;81.60;;;;;;5109109;27;20560;-49
2022/11/14 12:59:53;;;;;;;5.10;3.93;;;10.10;81.40;;;;;;5104994;28;20441;-50
2022/11/14 13:03:08;;;;;;;5.73;4.07;;;10.10;82.00;;;;;;5065070;28;20505;-50
2022/11/14 13:05:59;;;;;;;5.57;3.77;;;10.10;81.50;;;;;;5044004;28;20493;-50
2022/11/14 13:23:54;;;;;;;4.57;3.70;;;10.10;81.50;;;;;;4992679;28;20597;-50
2022/11/14 13:27:25;;;;;;;4.47;3.03;;;10.10;81.40;;;;;;4991706;28;20478;-49
2022/11/14 13:31:24;;;;;;;4.23;3.10;;;10.10;81.40;;;;;;5028998;28;20448;-51
2022/11/14 13:35:13;;;;;;;6.73;3.30;;;10.10;81.70;;;;;;5085602;28;20942;-50
2022/11/14 13:39:00;;;;;;;4.97;3.10;;;10.10;81.90;;;;;;5050393;28;20460;-51
2022/11/14 13:42:17;;;;;;;3.23;2.77;;;10.10;81.90;;;;;;5036005;28;20647;-49
2022/11/14 13:45:56;;;;;;;3.00;2.37;;;10.10;82.10;;;;;;5042191;28;20446;-50
2022/11/14 13:49:16;;;;;;;3.53;2.80;;;10.10;81.80;;;;;;5040469;28;20593;-50
2022/11/14 13:52:43;;;;;;;4.17;3.47;;;10.10;82.00;;;;;;5045386;28;20475;-50
2022/11/14 13:56:34;;;;;;;3.97;3.17;;;10.10;81.80;;;;;;5031790;28;20477;-50
2022/11/14 14:13:58;;;;;;;4.87;3.10;;;10.10;81.80;;;;;;5796731;22;10724500;-69
2022/11/14 14:17:28;;;;;;;3.93;3.53;;;10.10;82.20;;;;;;6245596;22;20250;-69
2022/11/14 14:20:39;;;;;;;7.03;5.20;;;10.10;82.10;;;;;;6219070;23;20419;-73
2022/11/14 14:23:39;;;;;;;7.90;4.77;;;10.10;83.50;;;;;;6188779;23;20404;-71
2022/11/14 14:26:35;;;;;;;9.83;5.90;;;10.10;82.70;;;;;;6188867;23;20845;-72
2022/11/14 14:29:31;;;;;;;4.63;3.90;;;10.10;82.70;;;;;;6188741;23;20365;-72
2022/11/14 14:32:20;;;;;;;5.43;4.60;;;10.00;82.50;;;;;;6188066;23;20909;-69
2022/11/14 14:35:38;;;;;;;6.37;4.27;;;10.10;83.00;;;;;;6189643;23;20376;-70
2022/11/14 14:49:04;;;;;;;5.37;4.67;;;10.00;82.80;;;;;;6218037;23;20423;-70
2022/11/14 14:52:15;;;;;;;5.57;4.27;;;10.00;82.70;;;;;;6219544;23;20391;-70
2022/11/14 14:55:18;;;;;;;5.27;4.77;;;10.00;82.70;;;;;;6215225;23;20457;-71
2022/11/14 14:58:16;;;;;;;6.60;5.20;;;10.00;82.80;;;;;;6216473;23;20764;-72
2022/11/14 15:01:13;;;;;;;10.23;4.50;;;10.00;82.60;;;;;;6216024;23;20429;-73
2022/11/14 15:04:04;;;;;;;8.40;4.50;;;10.10;83.50;;;;;;6216875;23;20729;-73
2022/11/14 15:06:54;;;;;;;10.00;6.20;;;10.10;83.50;;;;;;6216176;23;20435;-73
2022/11/14 15:09:52;;;;;;;7.13;6.43;;;10.20;83.60;;;;;;6216530;23;20426;-73
2022/11/14 15:12:41;;;;;;;5.87;5.27;;;10.20;83.60;;;;;;6214533;23;20976;-72
2022/11/14 15:15:29;;;;;;;9.97;6.70;;;10.20;83.60;;;;;;6209967;23;20412;-72
2022/11/14 15:18:23;;;;;;;8.23;6.07;;;10.20;83.60;;;;;;6210959;23;20869;-73
2022/11/14 15:21:16;;;;;;;6.80;5.53;;;10.20;83.60;;;;;;6210563;23;20431;-72
2022/11/14 15:24:13;;;;;;;6.33;5.73;;;10.30;83.60;;;;;;6210082;23;20372;-72
2022/11/14 15:27:04;;;;;;;6.97;5.53;;;10.30;83.60;;;;;;6209324;23;20447;-72
2022/11/14 15:29:53;;;;;;;9.93;6.40;;;10.30;83.60;;;;;;6209993;23;20416;-73
2022/11/14 15:32:49;;;;;;;6.80;5.00;;;10.30;83.60;;;;;;6209848;23;20435;-72
2022/11/14 15:35:39;;;;;;;8.07;6.40;;;10.40;83.30;;;;;;6211146;23;20385;-72
2022/11/14 15:38:26;;;;;;;7.77;6.60;;;10.40;83.20;;;;;;6210307;23;20404;-73
2022/11/14 15:41:31;;;;;;;6.20;5.40;;;10.40;83.20;;;;;;6210384;23;20880;-73
2022/11/14 15:44:32;;;;;;;8.17;5.30;;;10.40;83.10;;;;;;6210454;23;20462;-73
2022/11/14 15:47:22;;;;;;;8.07;5.40;;;10.40;82.90;;;;;;6209126;23;20432;-72
2022/11/14 15:50:24;;;;;;;9.10;6.77;;;10.40;82.80;;;;;;6210952;23;20412;-73
2022/11/14 15:53:23;;;;;;;7.37;5.47;;;10.40;83.00;;;;;;6211063;23;20450;-74